sensor_id;sensor_type;location;lat;lon;timestamp;temperature;humidity
17284;DHT22;8760;52.248;20.952;2023-05-10T00:02:01;10.50;20.20
17284;DHT22;8760;52.248;20.952;2023-05-10T00:04:31;10.40;21.30
17284;DHT22;8760;52.248;20.952;2023-05-10T00:06:58;10.40;24.10
17284;DHT22;8760;52.248;20.952;2023-05-10T00:09:26;10.40;24.10
17284;DHT22;8760;52.248;20.952;2023-05-10T00:11:53;10.40;18.40
17284;DHT22;8760;52.248;20.952;2023-05-10T00:14:20;10.40;20.10
17284;DHT22;8760;52.248;20.952;2023-05-10T00:16:47;10.30;24.00
17284;DHT22;8760;52.248;20.952;2023-05-10T00:19:14;10.30;25.50
17284;DHT22;8760;52.248;20.952;2023-05-10T00:21:40;10.30;26.20
17284;DHT22;8760;52.248;20.952;2023-05-10T00:24:07;10.30;27.40
17284;DHT22;8760;52.248;20.952;2023-05-10T00:26:35;10.30;21.70
17284;DHT22;8760;52.248;20.952;2023-05-10T00:29:02;10.30;22.80
17284;DHT22;8760;52.248;20.952;2023-05-10T00:31:29;10.30;22.10
17284;DHT22;8760;52.248;20.952;2023-05-10T00:33:56;10.30;13.20
17284;DHT22;8760;52.248;20.952;2023-05-10T00:36:23;10.30;16.40
17284;DHT22;8760;52.248;20.952;2023-05-10T00:38:50;10.20;19.90
17284;DHT22;8760;52.248;20.952;2023-05-10T00:41:16;10.20;21.60
17284;DHT22;8760;52.248;20.952;2023-05-10T00:43:45;10.20;18.80
17284;DHT22;8760;52.248;20.952;2023-05-10T00:46:12;10.20;13.90
17284;DHT22;8760;52.248;20.952;2023-05-10T00:48:40;10.20;13.90
17284;DHT22;8760;52.248;20.952;2023-05-10T00:51:07;10.20;16.70
17284;DHT22;8760;52.248;20.952;2023-05-10T00:53:34;10.20;16.70
17284;DHT22;8760;52.248;20.952;2023-05-10T00:56:02;10.10;20.20
17284;DHT22;8760;52.248;20.952;2023-05-10T00:58:29;10.10;17.80
17284;DHT22;8760;52.248;20.952;2023-05-10T01:00:58;10.10;11.10
17284;DHT22;8760;52.248;20.952;2023-05-10T01:03:26;10.10;6.30
17284;DHT22;8760;52.248;20.952;2023-05-10T01:05:53;10.10;7.40
17284;DHT22;8760;52.248;20.952;2023-05-10T01:08:20;10.10;5.40
17284;DHT22;8760;52.248;20.952;2023-05-10T01:10:47;10.10;9.90
17284;DHT22;8760;52.248;20.952;2023-05-10T01:13:23;10.00;15.50
17284;DHT22;8760;52.248;20.952;2023-05-10T01:15:52;9.90;14.10
17284;DHT22;8760;52.248;20.952;2023-05-10T01:18:21;9.90;13.40
17284;DHT22;8760;52.248;20.952;2023-05-10T01:20:55;9.90;14.80
17284;DHT22;8760;52.248;20.952;2023-05-10T01:23:50;9.90;10.10
17284;DHT22;8760;52.248;20.952;2023-05-10T01:26:46;9.90;11.10
17284;DHT22;8760;52.248;20.952;2023-05-10T01:29:34;9.90;19.60
17284;DHT22;8760;52.248;20.952;2023-05-10T01:32:19;9.90;22.40
17284;DHT22;8760;52.248;20.952;2023-05-10T01:34:54;9.90;19.70
17284;DHT22;8760;52.248;20.952;2023-05-10T01:37:27;9.90;12.90
17284;DHT22;8760;52.248;20.952;2023-05-10T01:40:00;9.80;13.20
17284;DHT22;8760;52.248;20.952;2023-05-10T01:42:38;9.70;17.70
17284;DHT22;8760;52.248;20.952;2023-05-10T01:45:14;9.70;24.00
17284;DHT22;8760;52.248;20.952;2023-05-10T01:47:50;9.70;22.30
17284;DHT22;8760;52.248;20.952;2023-05-10T01:50:24;9.70;18.80
17284;DHT22;8760;52.248;20.952;2023-05-10T01:52:56;9.70;21.20
17284;DHT22;8760;52.248;20.952;2023-05-10T01:55:25;9.70;25.30
17284;DHT22;8760;52.248;20.952;2023-05-10T01:58:00;9.70;24.10
17284;DHT22;8760;52.248;20.952;2023-05-10T02:00:29;9.60;32.20
17284;DHT22;8760;52.248;20.952;2023-05-10T02:02:59;9.60;28.60
17284;DHT22;8760;52.248;20.952;2023-05-10T02:05:29;9.50;33.10
17284;DHT22;8760;52.248;20.952;2023-05-10T02:07:58;9.50;43.70
17284;DHT22;8760;52.248;20.952;2023-05-10T02:10:26;9.50;48.80
17284;DHT22;8760;52.248;20.952;2023-05-10T02:12:54;9.40;54.00
17284;DHT22;8760;52.248;20.952;2023-05-10T02:15:25;9.40;73.60
17284;DHT22;8760;52.248;20.952;2023-05-10T02:17:55;9.30;78.40
17284;DHT22;8760;52.248;20.952;2023-05-10T02:20:24;9.20;89.10
17284;DHT22;8760;52.248;20.952;2023-05-10T02:22:54;9.20;97.60
17284;DHT22;8760;52.248;20.952;2023-05-10T02:25:23;9.20;96.90
17284;DHT22;8760;52.248;20.952;2023-05-10T02:27:51;9.10;99.90
17284;DHT22;8760;52.248;20.952;2023-05-10T02:30:20;9.10;99.90
17284;DHT22;8760;52.248;20.952;2023-05-10T02:32:49;9.10;99.90
17284;DHT22;8760;52.248;20.952;2023-05-10T02:35:16;9.10;99.90
17284;DHT22;8760;52.248;20.952;2023-05-10T02:37:45;9.00;99.90
17284;DHT22;8760;52.248;20.952;2023-05-10T02:40:15;8.90;99.90
17284;DHT22;8760;52.248;20.952;2023-05-10T02:42:44;8.90;99.90
17284;DHT22;8760;52.248;20.952;2023-05-10T02:45:15;8.80;99.90
17284;DHT22;8760;52.248;20.952;2023-05-10T02:47:44;8.80;99.90
17284;DHT22;8760;52.248;20.952;2023-05-10T02:50:11;8.80;99.90
17284;DHT22;8760;52.248;20.952;2023-05-10T02:52:40;8.80;99.90
17284;DHT22;8760;52.248;20.952;2023-05-10T02:55:15;8.70;99.90
17284;DHT22;8760;52.248;20.952;2023-05-10T02:57:51;8.70;99.90
17284;DHT22;8760;52.248;20.952;2023-05-10T03:00:19;8.70;99.90
17284;DHT22;8760;52.248;20.952;2023-05-10T03:02:46;8.70;99.90
17284;DHT22;8760;52.248;20.952;2023-05-10T03:05:13;8.70;99.90
17284;DHT22;8760;52.248;20.952;2023-05-10T03:07:40;8.70;99.90
17284;DHT22;8760;52.248;20.952;2023-05-10T03:10:07;8.70;99.90
17284;DHT22;8760;52.248;20.952;2023-05-10T03:12:52;8.60;99.90
17284;DHT22;8760;52.248;20.952;2023-05-10T03:15:28;8.60;99.90
17284;DHT22;8760;52.248;20.952;2023-05-10T03:18:04;8.60;99.90
17284;DHT22;8760;52.248;20.952;2023-05-10T03:20:35;8.60;99.90
17284;DHT22;8760;52.248;20.952;2023-05-10T03:23:13;8.60;99.90
17284;DHT22;8760;52.248;20.952;2023-05-10T03:25:47;8.60;99.90
17284;DHT22;8760;52.248;20.952;2023-05-10T03:28:18;8.60;99.90
17284;DHT22;8760;52.248;20.952;2023-05-10T03:30:46;8.60;99.90
17284;DHT22;8760;52.248;20.952;2023-05-10T03:33:13;8.60;99.90
17284;DHT22;8760;52.248;20.952;2023-05-10T03:35:40;8.70;99.90
17284;DHT22;8760;52.248;20.952;2023-05-10T03:38:07;8.70;99.90
17284;DHT22;8760;52.248;20.952;2023-05-10T03:40:34;8.70;99.90
17284;DHT22;8760;52.248;20.952;2023-05-10T03:43:01;8.70;99.90
17284;DHT22;8760;52.248;20.952;2023-05-10T03:45:29;8.60;99.90
17284;DHT22;8760;52.248;20.952;2023-05-10T03:47:57;8.60;99.90
17284;DHT22;8760;52.248;20.952;2023-05-10T03:50:24;8.60;99.90
17284;DHT22;8760;52.248;20.952;2023-05-10T03:52:51;8.60;99.90
17284;DHT22;8760;52.248;20.952;2023-05-10T03:55:18;8.60;99.90
17284;DHT22;8760;52.248;20.952;2023-05-10T03:57:45;8.60;99.90
17284;DHT22;8760;52.248;20.952;2023-05-10T04:00:15;8.60;99.90
17284;DHT22;8760;52.248;20.952;2023-05-10T04:02:43;8.70;99.90
17284;DHT22;8760;52.248;20.952;2023-05-10T04:05:10;8.60;99.90
17284;DHT22;8760;52.248;20.952;2023-05-10T04:07:38;8.60;99.90
17284;DHT22;8760;52.248;20.952;2023-05-10T04:10:05;8.70;99.90
17284;DHT22;8760;52.248;20.952;2023-05-10T04:12:32;8.70;99.90
17284;DHT22;8760;52.248;20.952;2023-05-10T04:14:59;8.70;99.90
17284;DHT22;8760;52.248;20.952;2023-05-10T04:17:26;8.70;99.90
17284;DHT22;8760;52.248;20.952;2023-05-10T04:19:56;8.80;99.90
17284;DHT22;8760;52.248;20.952;2023-05-10T04:22:23;8.80;99.90
17284;DHT22;8760;52.248;20.952;2023-05-10T04:24:49;8.80;99.90
17284;DHT22;8760;52.248;20.952;2023-05-10T04:27:16;8.90;99.90
17284;DHT22;8760;52.248;20.952;2023-05-10T04:29:43;8.90;99.90
17284;DHT22;8760;52.248;20.952;2023-05-10T04:32:10;9.00;99.90
17284;DHT22;8760;52.248;20.952;2023-05-10T04:34:37;9.00;99.90
17284;DHT22;8760;52.248;20.952;2023-05-10T04:37:05;9.10;99.90
17284;DHT22;8760;52.248;20.952;2023-05-10T04:39:33;9.00;99.90
17284;DHT22;8760;52.248;20.952;2023-05-10T04:42:00;9.10;99.90
17284;DHT22;8760;52.248;20.952;2023-05-10T04:44:28;9.10;99.90
17284;DHT22;8760;52.248;20.952;2023-05-10T04:46:55;9.20;99.90
17284;DHT22;8760;52.248;20.952;2023-05-10T04:49:21;9.30;99.90
17284;DHT22;8760;52.248;20.952;2023-05-10T04:51:48;9.30;99.90
17284;DHT22;8760;52.248;20.952;2023-05-10T04:54:17;9.30;99.90
17284;DHT22;8760;52.248;20.952;2023-05-10T04:56:43;9.40;99.90
17284;DHT22;8760;52.248;20.952;2023-05-10T04:59:11;9.50;99.90
17284;DHT22;8760;52.248;20.952;2023-05-10T05:01:37;9.50;99.90
17284;DHT22;8760;52.248;20.952;2023-05-10T05:04:04;9.60;99.90
17284;DHT22;8760;52.248;20.952;2023-05-10T05:06:32;9.70;99.90
17284;DHT22;8760;52.248;20.952;2023-05-10T05:08:59;9.80;99.90
17284;DHT22;8760;52.248;20.952;2023-05-10T05:11:27;9.80;99.90
17284;DHT22;8760;52.248;20.952;2023-05-10T05:13:54;9.90;99.90
17284;DHT22;8760;52.248;20.952;2023-05-10T05:16:21;10.00;99.90
17284;DHT22;8760;52.248;20.952;2023-05-10T05:18:47;10.10;99.90
17284;DHT22;8760;52.248;20.952;2023-05-10T05:21:15;10.20;99.90
17284;DHT22;8760;52.248;20.952;2023-05-10T05:23:42;10.30;99.90
17284;DHT22;8760;52.248;20.952;2023-05-10T05:26:09;10.40;99.90
17284;DHT22;8760;52.248;20.952;2023-05-10T05:28:38;10.50;99.90
17284;DHT22;8760;52.248;20.952;2023-05-10T05:31:05;10.50;99.90
17284;DHT22;8760;52.248;20.952;2023-05-10T05:33:33;10.60;99.90
17284;DHT22;8760;52.248;20.952;2023-05-10T05:36:01;10.70;99.90
17284;DHT22;8760;52.248;20.952;2023-05-10T05:38:28;10.80;99.90
17284;DHT22;8760;52.248;20.952;2023-05-10T05:40:55;10.90;99.90
17284;DHT22;8760;52.248;20.952;2023-05-10T05:43:22;11.00;99.90
17284;DHT22;8760;52.248;20.952;2023-05-10T05:45:52;11.10;99.90
17284;DHT22;8760;52.248;20.952;2023-05-10T05:48:19;11.30;99.90
17284;DHT22;8760;52.248;20.952;2023-05-10T05:50:46;11.40;99.90
17284;DHT22;8760;52.248;20.952;2023-05-10T05:53:12;11.50;99.90
17284;DHT22;8760;52.248;20.952;2023-05-10T05:55:39;11.70;99.90
17284;DHT22;8760;52.248;20.952;2023-05-10T05:58:06;11.90;99.90
17284;DHT22;8760;52.248;20.952;2023-05-10T06:00:33;12.10;99.90
17284;DHT22;8760;52.248;20.952;2023-05-10T06:03:02;12.20;99.90
17284;DHT22;8760;52.248;20.952;2023-05-10T06:05:29;12.30;94.70
17284;DHT22;8760;52.248;20.952;2023-05-10T06:07:56;12.50;93.60
17284;DHT22;8760;52.248;20.952;2023-05-10T06:10:23;12.60;96.40
17284;DHT22;8760;52.248;20.952;2023-05-10T06:12:51;12.80;99.90
17284;DHT22;8760;52.248;20.952;2023-05-10T06:15:18;13.00;99.90
17284;DHT22;8760;52.248;20.952;2023-05-10T06:17:45;13.10;86.20
17284;DHT22;8760;52.248;20.952;2023-05-10T06:20:14;13.20;99.90
17284;DHT22;8760;52.248;20.952;2023-05-10T06:22:41;13.30;72.90
17284;DHT22;8760;52.248;20.952;2023-05-10T06:25:09;13.40;56.40
17284;DHT22;8760;52.248;20.952;2023-05-10T06:27:36;13.60;58.80
17284;DHT22;8760;52.248;20.952;2023-05-10T06:30:04;13.70;46.80
17284;DHT22;8760;52.248;20.952;2023-05-10T06:32:31;14.00;39.40
17284;DHT22;8760;52.248;20.952;2023-05-10T06:34:58;14.20;36.00
17284;DHT22;8760;52.248;20.952;2023-05-10T06:37:27;14.40;42.30
17284;DHT22;8760;52.248;20.952;2023-05-10T06:39:53;14.40;23.20
17284;DHT22;8760;52.248;20.952;2023-05-10T06:42:20;14.60;23.90
17284;DHT22;8760;52.248;20.952;2023-05-10T06:44:47;14.90;17.40
17284;DHT22;8760;52.248;20.952;2023-05-10T06:47:14;14.90;10.20
17284;DHT22;8760;52.248;20.952;2023-05-10T06:49:41;15.10;13.10
17284;DHT22;8760;52.248;20.952;2023-05-10T06:52:07;15.30;15.20
17284;DHT22;8760;52.248;20.952;2023-05-10T06:54:36;15.60;8.00
17284;DHT22;8760;52.248;20.952;2023-05-10T06:57:02;15.60;1.40
17284;DHT22;8760;52.248;20.952;2023-05-10T06:59:29;16.00;9.00
17284;DHT22;8760;52.248;20.952;2023-05-10T07:01:56;16.20;1.00
17284;DHT22;8760;52.248;20.952;2023-05-10T07:04:23;16.50;1.00
17284;DHT22;8760;52.248;20.952;2023-05-10T07:06:50;16.60;1.00
17284;DHT22;8760;52.248;20.952;2023-05-10T07:09:17;16.60;1.00
17284;DHT22;8760;52.248;20.952;2023-05-10T07:11:45;16.60;1.00
17284;DHT22;8760;52.248;20.952;2023-05-10T07:14:13;16.70;1.00
17284;DHT22;8760;52.248;20.952;2023-05-10T07:16:40;17.00;1.00
17284;DHT22;8760;52.248;20.952;2023-05-10T07:19:07;17.10;1.00
17284;DHT22;8760;52.248;20.952;2023-05-10T07:21:34;17.60;1.00
17284;DHT22;8760;52.248;20.952;2023-05-10T07:24:01;17.60;1.00
17284;DHT22;8760;52.248;20.952;2023-05-10T07:26:28;17.80;1.00
17284;DHT22;8760;52.248;20.952;2023-05-10T07:28:56;18.10;1.00
17284;DHT22;8760;52.248;20.952;2023-05-10T07:31:23;18.50;1.00
17284;DHT22;8760;52.248;20.952;2023-05-10T07:33:50;18.70;1.00
17284;DHT22;8760;52.248;20.952;2023-05-10T07:36:17;19.10;1.00
17284;DHT22;8760;52.248;20.952;2023-05-10T07:38:44;19.20;1.00
17284;DHT22;8760;52.248;20.952;2023-05-10T07:41:11;18.90;1.00
17284;DHT22;8760;52.248;20.952;2023-05-10T07:43:38;19.10;1.00
17284;DHT22;8760;52.248;20.952;2023-05-10T07:46:06;18.70;1.00
17284;DHT22;8760;52.248;20.952;2023-05-10T07:48:36;18.90;1.00
17284;DHT22;8760;52.248;20.952;2023-05-10T07:51:03;19.30;1.00
17284;DHT22;8760;52.248;20.952;2023-05-10T07:53:30;19.40;1.00
17284;DHT22;8760;52.248;20.952;2023-05-10T07:55:57;19.00;1.00
17284;DHT22;8760;52.248;20.952;2023-05-10T07:58:25;19.40;1.00
17284;DHT22;8760;52.248;20.952;2023-05-10T08:00:52;19.80;1.00
17284;DHT22;8760;52.248;20.952;2023-05-10T08:03:20;20.20;1.00
17284;DHT22;8760;52.248;20.952;2023-05-10T08:05:47;20.30;1.00
17284;DHT22;8760;52.248;20.952;2023-05-10T08:08:14;20.50;1.00
17284;DHT22;8760;52.248;20.952;2023-05-10T08:10:41;20.60;1.00
17284;DHT22;8760;52.248;20.952;2023-05-10T08:13:08;20.80;1.00
17284;DHT22;8760;52.248;20.952;2023-05-10T08:15:35;20.80;1.00
17284;DHT22;8760;52.248;20.952;2023-05-10T08:18:02;20.20;1.00
17284;DHT22;8760;52.248;20.952;2023-05-10T08:20:31;20.20;1.00
17284;DHT22;8760;52.248;20.952;2023-05-10T08:22:57;20.60;1.00
17284;DHT22;8760;52.248;20.952;2023-05-10T08:25:24;21.00;1.00
17284;DHT22;8760;52.248;20.952;2023-05-10T08:27:51;21.30;1.00
17284;DHT22;8760;52.248;20.952;2023-05-10T08:30:18;21.10;1.00
17284;DHT22;8760;52.248;20.952;2023-05-10T08:32:45;20.80;1.00
17284;DHT22;8760;52.248;20.952;2023-05-10T08:35:12;20.80;1.00
17284;DHT22;8760;52.248;20.952;2023-05-10T08:37:40;21.30;1.00
17284;DHT22;8760;52.248;20.952;2023-05-10T08:40:09;21.20;1.00
17284;DHT22;8760;52.248;20.952;2023-05-10T08:42:41;21.10;1.00
17284;DHT22;8760;52.248;20.952;2023-05-10T08:45:10;20.30;1.00
17284;DHT22;8760;52.248;20.952;2023-05-10T08:47:38;20.50;1.00
17284;DHT22;8760;52.248;20.952;2023-05-10T08:50:06;20.80;1.00
17284;DHT22;8760;52.248;20.952;2023-05-10T08:52:39;21.10;1.00
17284;DHT22;8760;52.248;20.952;2023-05-10T08:55:07;21.20;1.00
17284;DHT22;8760;52.248;20.952;2023-05-10T08:57:35;21.00;1.00
17284;DHT22;8760;52.248;20.952;2023-05-10T09:00:03;21.40;1.00
17284;DHT22;8760;52.248;20.952;2023-05-10T09:02:31;21.30;1.00
17284;DHT22;8760;52.248;20.952;2023-05-10T09:04:58;21.60;1.00
17284;DHT22;8760;52.248;20.952;2023-05-10T09:07:25;21.50;1.00
17284;DHT22;8760;52.248;20.952;2023-05-10T09:09:54;21.50;1.00
17284;DHT22;8760;52.248;20.952;2023-05-10T09:12:21;21.50;1.00
17284;DHT22;8760;52.248;20.952;2023-05-10T09:14:48;21.80;1.00
17284;DHT22;8760;52.248;20.952;2023-05-10T09:17:17;21.50;1.00
17284;DHT22;8760;52.248;20.952;2023-05-10T09:19:45;20.60;1.00
17284;DHT22;8760;52.248;20.952;2023-05-10T09:22:12;21.20;1.00
17284;DHT22;8760;52.248;20.952;2023-05-10T09:24:39;21.50;1.00
17284;DHT22;8760;52.248;20.952;2023-05-10T09:27:11;21.80;1.00
17284;DHT22;8760;52.248;20.952;2023-05-10T09:29:42;22.60;1.00
17284;DHT22;8760;52.248;20.952;2023-05-10T09:32:09;22.50;1.00
17284;DHT22;8760;52.248;20.952;2023-05-10T09:34:36;22.40;1.00
17284;DHT22;8760;52.248;20.952;2023-05-10T09:37:05;22.50;1.00
17284;DHT22;8760;52.248;20.952;2023-05-10T09:39:34;22.60;1.00
17284;DHT22;8760;52.248;20.952;2023-05-10T09:42:03;22.30;1.00
17284;DHT22;8760;52.248;20.952;2023-05-10T09:44:32;22.80;1.00
17284;DHT22;8760;52.248;20.952;2023-05-10T09:47:00;22.60;1.00
17284;DHT22;8760;52.248;20.952;2023-05-10T09:49:27;22.80;1.00
17284;DHT22;8760;52.248;20.952;2023-05-10T09:52:01;22.90;1.00
17284;DHT22;8760;52.248;20.952;2023-05-10T09:54:29;23.00;1.00
17284;DHT22;8760;52.248;20.952;2023-05-10T09:56:56;23.30;1.00
17284;DHT22;8760;52.248;20.952;2023-05-10T09:59:25;23.40;1.00
17284;DHT22;8760;52.248;20.952;2023-05-10T10:01:56;23.00;1.00
17284;DHT22;8760;52.248;20.952;2023-05-10T10:04:23;23.60;1.00
17284;DHT22;8760;52.248;20.952;2023-05-10T10:07:01;23.50;1.00
17284;DHT22;8760;52.248;20.952;2023-05-10T10:09:28;23.40;1.00
17284;DHT22;8760;52.248;20.952;2023-05-10T10:11:55;22.40;1.00
17284;DHT22;8760;52.248;20.952;2023-05-10T10:14:23;22.80;1.00
17284;DHT22;8760;52.248;20.952;2023-05-10T10:16:50;23.10;1.00
17284;DHT22;8760;52.248;20.952;2023-05-10T10:19:20;23.50;1.00
17284;DHT22;8760;52.248;20.952;2023-05-10T10:21:46;24.00;1.00
17284;DHT22;8760;52.248;20.952;2023-05-10T10:24:13;24.10;1.00
17284;DHT22;8760;52.248;20.952;2023-05-10T10:26:41;24.00;1.00
17284;DHT22;8760;52.248;20.952;2023-05-10T10:29:19;23.80;1.00
17284;DHT22;8760;52.248;20.952;2023-05-10T10:31:50;24.20;1.00
17284;DHT22;8760;52.248;20.952;2023-05-10T10:34:26;24.00;1.00
17284;DHT22;8760;52.248;20.952;2023-05-10T10:36:55;23.50;1.00
17284;DHT22;8760;52.248;20.952;2023-05-10T10:39:23;24.00;1.00
17284;DHT22;8760;52.248;20.952;2023-05-10T10:41:51;24.00;1.00
17284;DHT22;8760;52.248;20.952;2023-05-10T10:44:35;24.30;1.00
17284;DHT22;8760;52.248;20.952;2023-05-10T10:47:06;24.30;1.00
17284;DHT22;8760;52.248;20.952;2023-05-10T10:49:42;24.10;1.00
17284;DHT22;8760;52.248;20.952;2023-05-10T10:52:31;24.50;1.00
17284;DHT22;8760;52.248;20.952;2023-05-10T10:55:00;25.00;1.00
17284;DHT22;8760;52.248;20.952;2023-05-10T10:57:29;25.00;1.00
17284;DHT22;8760;52.248;20.952;2023-05-10T11:00:22;24.60;1.00
17284;DHT22;8760;52.248;20.952;2023-05-10T11:02:51;23.40;1.00
17284;DHT22;8760;52.248;20.952;2023-05-10T11:05:35;23.30;1.00
17284;DHT22;8760;52.248;20.952;2023-05-10T11:08:09;23.20;1.00
17284;DHT22;8760;52.248;20.952;2023-05-10T11:10:36;23.50;1.00
17284;DHT22;8760;52.248;20.952;2023-05-10T11:13:04;24.10;1.00
17284;DHT22;8760;52.248;20.952;2023-05-10T11:15:32;24.00;1.00
17284;DHT22;8760;52.248;20.952;2023-05-10T11:18:00;23.60;1.00
17284;DHT22;8760;52.248;20.952;2023-05-10T11:20:43;23.30;1.00
17284;DHT22;8760;52.248;20.952;2023-05-10T11:23:13;23.40;1.00
17284;DHT22;8760;52.248;20.952;2023-05-10T11:25:43;23.50;1.00
17284;DHT22;8760;52.248;20.952;2023-05-10T11:28:11;23.40;1.00
17284;DHT22;8760;52.248;20.952;2023-05-10T11:30:38;23.30;1.00
17284;DHT22;8760;52.248;20.952;2023-05-10T11:33:06;23.40;1.00
17284;DHT22;8760;52.248;20.952;2023-05-10T11:35:37;23.00;1.00
17284;DHT22;8760;52.248;20.952;2023-05-10T11:38:07;22.50;1.00
17284;DHT22;8760;52.248;20.952;2023-05-10T11:40:34;22.40;1.00
17284;DHT22;8760;52.248;20.952;2023-05-10T11:43:01;21.80;1.00
17284;DHT22;8760;52.248;20.952;2023-05-10T11:45:28;21.40;1.00
17284;DHT22;8760;52.248;20.952;2023-05-10T11:47:57;21.20;1.00
17284;DHT22;8760;52.248;20.952;2023-05-10T11:50:24;21.50;1.00
17284;DHT22;8760;52.248;20.952;2023-05-10T11:52:52;21.60;1.00
17284;DHT22;8760;52.248;20.952;2023-05-10T11:55:20;21.50;1.00
17284;DHT22;8760;52.248;20.952;2023-05-10T11:57:51;21.40;1.00
17284;DHT22;8760;52.248;20.952;2023-05-10T12:00:18;21.40;1.00
17284;DHT22;8760;52.248;20.952;2023-05-10T12:02:45;21.10;1.00
17284;DHT22;8760;52.248;20.952;2023-05-10T12:05:12;20.70;1.00
17284;DHT22;8760;52.248;20.952;2023-05-10T12:07:39;20.70;1.00
17284;DHT22;8760;52.248;20.952;2023-05-10T12:10:07;20.70;1.00
17284;DHT22;8760;52.248;20.952;2023-05-10T12:12:40;20.70;1.00
17284;DHT22;8760;52.248;20.952;2023-05-10T12:15:12;20.30;1.00
17284;DHT22;8760;52.248;20.952;2023-05-10T12:17:39;20.60;1.00
17284;DHT22;8760;52.248;20.952;2023-05-10T12:20:13;20.80;1.00
17284;DHT22;8760;52.248;20.952;2023-05-10T12:22:41;20.50;1.00
17284;DHT22;8760;52.248;20.952;2023-05-10T12:25:10;20.40;1.00
17284;DHT22;8760;52.248;20.952;2023-05-10T12:27:38;20.50;1.00
17284;DHT22;8760;52.248;20.952;2023-05-10T12:30:06;20.60;1.00
17284;DHT22;8760;52.248;20.952;2023-05-10T12:32:40;20.70;1.00
17284;DHT22;8760;52.248;20.952;2023-05-10T12:35:07;20.70;1.00
17284;DHT22;8760;52.248;20.952;2023-05-10T12:37:35;20.60;1.00
17284;DHT22;8760;52.248;20.952;2023-05-10T12:40:06;20.60;1.00
17284;DHT22;8760;52.248;20.952;2023-05-10T12:42:34;20.50;1.00
17284;DHT22;8760;52.248;20.952;2023-05-10T12:45:04;20.20;1.00
17284;DHT22;8760;52.248;20.952;2023-05-10T12:47:31;20.10;1.00
17284;DHT22;8760;52.248;20.952;2023-05-10T12:50:03;20.10;1.00
17284;DHT22;8760;52.248;20.952;2023-05-10T12:52:31;20.00;1.00
17284;DHT22;8760;52.248;20.952;2023-05-10T12:54:58;19.90;1.00
17284;DHT22;8760;52.248;20.952;2023-05-10T12:57:26;19.90;1.00
17284;DHT22;8760;52.248;20.952;2023-05-10T12:59:53;19.80;1.00
17284;DHT22;8760;52.248;20.952;2023-05-10T13:02:22;19.90;1.00
17284;DHT22;8760;52.248;20.952;2023-05-10T13:04:49;19.60;1.00
17284;DHT22;8760;52.248;20.952;2023-05-10T13:07:16;19.50;1.00
17284;DHT22;8760;52.248;20.952;2023-05-10T13:09:43;19.30;1.00
17284;DHT22;8760;52.248;20.952;2023-05-10T13:12:10;19.40;1.00
17284;DHT22;8760;52.248;20.952;2023-05-10T13:14:37;20.00;1.00
17284;DHT22;8760;52.248;20.952;2023-05-10T13:17:06;20.40;1.00
17284;DHT22;8760;52.248;20.952;2023-05-10T13:19:35;20.60;1.00
17284;DHT22;8760;52.248;20.952;2023-05-10T13:22:03;20.80;1.00
17284;DHT22;8760;52.248;20.952;2023-05-10T13:24:30;21.10;1.00
17284;DHT22;8760;52.248;20.952;2023-05-10T13:26:58;21.10;1.00
17284;DHT22;8760;52.248;20.952;2023-05-10T13:29:26;20.90;1.00
17284;DHT22;8760;52.248;20.952;2023-05-10T13:31:53;20.70;1.00
17284;DHT22;8760;52.248;20.952;2023-05-10T13:34:20;20.60;1.00
17284;DHT22;8760;52.248;20.952;2023-05-10T13:36:48;20.70;1.00
17284;DHT22;8760;52.248;20.952;2023-05-10T13:39:15;21.10;1.00
17284;DHT22;8760;52.248;20.952;2023-05-10T13:41:43;21.20;1.00
17284;DHT22;8760;52.248;20.952;2023-05-10T13:44:12;21.40;1.00
17284;DHT22;8760;52.248;20.952;2023-05-10T13:46:39;21.30;1.00
17284;DHT22;8760;52.248;20.952;2023-05-10T13:49:09;21.00;1.00
17284;DHT22;8760;52.248;20.952;2023-05-10T13:51:36;20.70;1.00
17284;DHT22;8760;52.248;20.952;2023-05-10T13:54:04;20.30;1.00
17284;DHT22;8760;52.248;20.952;2023-05-10T13:56:31;20.00;1.00
17284;DHT22;8760;52.248;20.952;2023-05-10T13:58:59;19.90;1.00
17284;DHT22;8760;52.248;20.952;2023-05-10T14:01:26;19.50;1.00
17284;DHT22;8760;52.248;20.952;2023-05-10T14:03:54;19.50;1.00
17284;DHT22;8760;52.248;20.952;2023-05-10T14:06:21;19.40;1.00
17284;DHT22;8760;52.248;20.952;2023-05-10T14:08:48;19.30;1.00
17284;DHT22;8760;52.248;20.952;2023-05-10T14:11:17;19.30;1.00
17284;DHT22;8760;52.248;20.952;2023-05-10T14:13:44;19.20;1.00
17284;DHT22;8760;52.248;20.952;2023-05-10T14:16:11;19.10;1.00
17284;DHT22;8760;52.248;20.952;2023-05-10T14:18:40;19.00;1.00
17284;DHT22;8760;52.248;20.952;2023-05-10T14:21:08;19.10;1.00
17284;DHT22;8760;52.248;20.952;2023-05-10T14:23:34;19.20;1.00
17284;DHT22;8760;52.248;20.952;2023-05-10T14:26:02;19.30;1.00
17284;DHT22;8760;52.248;20.952;2023-05-10T14:28:30;19.30;1.00
17284;DHT22;8760;52.248;20.952;2023-05-10T14:30:58;19.40;1.00
17284;DHT22;8760;52.248;20.952;2023-05-10T14:33:25;19.30;1.00
17284;DHT22;8760;52.248;20.952;2023-05-10T14:35:54;19.40;1.00
17284;DHT22;8760;52.248;20.952;2023-05-10T14:38:22;19.50;1.00
17284;DHT22;8760;52.248;20.952;2023-05-10T14:40:49;19.40;1.00
17284;DHT22;8760;52.248;20.952;2023-05-10T14:43:16;19.40;1.00
17284;DHT22;8760;52.248;20.952;2023-05-10T14:45:45;19.30;1.00
17284;DHT22;8760;52.248;20.952;2023-05-10T14:48:13;19.30;1.00
17284;DHT22;8760;52.248;20.952;2023-05-10T14:50:43;19.10;1.00
17284;DHT22;8760;52.248;20.952;2023-05-10T14:53:10;19.10;1.00
17284;DHT22;8760;52.248;20.952;2023-05-10T14:55:37;19.10;1.00
17284;DHT22;8760;52.248;20.952;2023-05-10T14:58:04;19.00;1.00
17284;DHT22;8760;52.248;20.952;2023-05-10T15:00:32;19.10;1.00
17284;DHT22;8760;52.248;20.952;2023-05-10T15:03:01;19.20;1.00
17284;DHT22;8760;52.248;20.952;2023-05-10T15:05:29;19.10;1.00
17284;DHT22;8760;52.248;20.952;2023-05-10T15:07:56;19.10;1.00
17284;DHT22;8760;52.248;20.952;2023-05-10T15:10:23;19.20;1.00
17284;DHT22;8760;52.248;20.952;2023-05-10T15:12:50;19.30;1.00
17284;DHT22;8760;52.248;20.952;2023-05-10T15:15:17;19.20;1.00
17284;DHT22;8760;52.248;20.952;2023-05-10T15:17:44;19.00;1.00
17284;DHT22;8760;52.248;20.952;2023-05-10T15:20:13;19.00;1.00
17284;DHT22;8760;52.248;20.952;2023-05-10T15:22:40;19.00;1.00
17284;DHT22;8760;52.248;20.952;2023-05-10T15:25:07;18.90;1.00
17284;DHT22;8760;52.248;20.952;2023-05-10T15:27:35;18.80;1.00
17284;DHT22;8760;52.248;20.952;2023-05-10T15:30:03;18.80;1.00
17284;DHT22;8760;52.248;20.952;2023-05-10T15:32:30;19.00;1.00
17284;DHT22;8760;52.248;20.952;2023-05-10T15:34:58;19.00;1.00
17284;DHT22;8760;52.248;20.952;2023-05-10T15:37:27;18.90;1.00
17284;DHT22;8760;52.248;20.952;2023-05-10T15:39:54;18.90;1.00
17284;DHT22;8760;52.248;20.952;2023-05-10T15:42:28;18.90;1.00
17284;DHT22;8760;52.248;20.952;2023-05-10T15:44:55;18.80;1.00
17284;DHT22;8760;52.248;20.952;2023-05-10T15:47:22;18.70;1.00
17284;DHT22;8760;52.248;20.952;2023-05-10T15:49:49;18.60;1.00
17284;DHT22;8760;52.248;20.952;2023-05-10T15:52:16;18.30;1.00